Winchester, Ohio
Current Conditions -  °F | °C
As of 3:35 AM on Friday 31 Oct 2014 (Local Time) from KFGX Reporting Station
Overcast Overcast  
Wind Chill: 40°   Ceiling: 7500
Heat Index: 40°   Visibility: 10mi
Dew Point: 37°   Wind: 0mph
Humidity: 88%   Direction: NA
Pressure: 30.03"   Gusts: NA
Location:  38.94°N, 83.65°W
Report Text: KFGX 310735Z AUTO 00000KT 10SM OVC075 05/03 A3003 RMK AO2 T00460027
Loading
Personal Weather Stations






























Interactive Weather Map
Tropical Storm Tracking
New forecast layout! Learn more

10-Day Weather Forecast

Advertisements
Track Severe Weather on mobile